Terminal Aerodrome Forecast
Issued by NWS

Home | Current Version | Previous Version | Text Only | Print | Product List | Glossary On
Versions: 1 2 3 4 5 6 7 8 9 10 11 12
874
FTUS44 KJAN 062341
TAFGTR
TAF
KGTR 062341Z 0700/0724 01005KT P6SM FEW250
     FM071500 26007KT P6SM SKC=

USA.gov is the U.S. government's official web portal to all federal, state and local government web resources and services.